createdAt,value
2019-03-15T00:02:19.017Z,6.90
2019-03-15T00:04:50.227Z,6.80
2019-03-15T00:07:21.433Z,6.80
2019-03-15T00:09:52.701Z,6.90
2019-03-15T00:12:23.958Z,6.90
2019-03-15T00:14:55.087Z,7.00
2019-03-15T00:17:26.315Z,7.00
2019-03-15T00:19:57.560Z,7.00
2019-03-15T00:22:28.814Z,7.00
2019-03-15T00:25:00.081Z,7.00
2019-03-15T00:27:50.271Z,7.00
2019-03-15T00:30:40.551Z,6.90
2019-03-15T00:33:11.841Z,6.90
2019-03-15T00:35:43.058Z,6.90
2019-03-15T00:38:14.313Z,7.00
2019-03-15T00:40:45.709Z,7.10
2019-03-15T00:43:16.960Z,7.20
2019-03-15T00:45:48.181Z,7.10
2019-03-15T00:48:19.399Z,7.20
2019-03-15T00:50:50.550Z,7.10
2019-03-15T00:53:21.805Z,7.20
2019-03-15T00:55:53.020Z,7.20
2019-03-15T00:58:24.287Z,7.20
2019-03-15T01:00:55.523Z,7.10
2019-03-15T01:03:27.135Z,7.10
2019-03-15T01:05:58.318Z,7.10
2019-03-15T01:08:29.505Z,7.10
2019-03-15T01:11:00.751Z,7.00
2019-03-15T01:13:31.871Z,7.00
2019-03-15T01:16:03.083Z,6.90
2019-03-15T01:18:34.326Z,6.90
2019-03-15T01:21:05.693Z,6.90
2019-03-15T01:23:36.879Z,7.00
2019-03-15T01:26:08.192Z,7.00
2019-03-15T01:28:39.431Z,7.00
2019-03-15T01:31:10.703Z,7.00
2019-03-15T01:33:41.953Z,7.00
2019-03-15T01:36:13.181Z,7.00
2019-03-15T01:38:44.418Z,7.10
2019-03-15T01:41:15.638Z,7.10
2019-03-15T01:43:46.958Z,7.10
2019-03-15T01:46:18.093Z,7.10
2019-03-15T01:48:49.396Z,7.10
2019-03-15T01:51:20.630Z,7.10
2019-03-15T01:53:51.916Z,7.10
2019-03-15T01:56:26.523Z,7.20
2019-03-15T01:59:16.755Z,7.20
2019-03-15T02:02:07.004Z,7.30
2019-03-15T02:04:38.278Z,7.30
2019-03-15T02:07:09.484Z,7.30
2019-03-15T02:09:40.715Z,7.30
2019-03-15T02:12:11.938Z,7.30
2019-03-15T02:14:43.094Z,7.30
2019-03-15T02:17:14.330Z,7.30
2019-03-15T02:19:45.595Z,7.30
2019-03-15T02:22:16.841Z,7.20
2019-03-15T02:24:48.090Z,7.10
2019-03-15T02:27:19.333Z,7.10
2019-03-15T02:29:50.592Z,7.00
2019-03-15T02:32:21.858Z,7.00
2019-03-15T02:34:53.940Z,7.00
2019-03-15T02:37:25.258Z,7.00
2019-03-15T02:39:56.394Z,7.10
2019-03-15T02:42:27.653Z,7.00
2019-03-15T02:44:58.879Z,7.10
2019-03-15T02:47:30.117Z,7.10
2019-03-15T02:50:02.147Z,7.00
2019-03-15T02:52:33.417Z,7.00
2019-03-15T02:55:04.698Z,6.90
2019-03-15T02:57:36.008Z,6.80
2019-03-15T03:00:07.563Z,6.80
2019-03-15T03:02:38.801Z,6.70
2019-03-15T03:05:10.683Z,6.70
2019-03-15T03:07:44.916Z,6.80
2019-03-15T03:10:16.201Z,6.80
2019-03-15T03:12:47.414Z,6.80
2019-03-15T03:15:18.631Z,6.80
2019-03-15T03:17:49.890Z,6.70
2019-03-15T03:20:21.346Z,6.80
2019-03-15T03:22:52.649Z,6.80
2019-03-15T03:25:23.872Z,6.80
2019-03-15T03:27:55.197Z,6.80
2019-03-15T03:30:46.781Z,6.90
2019-03-15T03:33:18.342Z,6.90
2019-03-15T03:35:49.486Z,7.00
2019-03-15T03:38:20.747Z,6.90
2019-03-15T03:40:52.058Z,7.00
2019-03-15T03:43:23.192Z,6.90
2019-03-15T03:45:54.442Z,6.80
2019-03-15T03:48:25.712Z,6.90
2019-03-15T03:50:59.812Z,6.90
2019-03-15T03:53:30.034Z,6.90
2019-03-15T03:56:01.334Z,6.90
2019-03-15T03:58:32.584Z,6.90
2019-03-15T04:01:03.774Z,6.90
2019-03-15T04:03:34.955Z,6.90
2019-03-15T04:06:06.088Z,7.00
2019-03-15T04:08:37.231Z,6.90
2019-03-15T04:11:08.449Z,6.90
2019-03-15T04:13:39.705Z,6.90
2019-03-15T04:16:10.920Z,6.90
2019-03-15T04:18:42.049Z,6.90
2019-03-15T04:21:13.247Z,6.90
2019-03-15T04:23:44.488Z,6.90
2019-03-15T04:26:15.694Z,6.90
2019-03-15T04:28:47.103Z,7.00
2019-03-15T04:31:18.241Z,6.90
2019-03-15T04:33:49.457Z,6.90
2019-03-15T04:36:20.736Z,6.90
2019-03-15T04:38:51.866Z,6.90
2019-03-15T04:41:23.130Z,6.90
2019-03-15T04:43:54.295Z,7.00
2019-03-15T04:46:25.580Z,7.00
2019-03-15T04:48:56.773Z,7.10
2019-03-15T04:51:28.013Z,7.10
2019-03-15T04:53:59.189Z,7.00
2019-03-15T04:56:30.493Z,7.00
2019-03-15T04:59:01.674Z,6.90
2019-03-15T05:01:32.853Z,6.90
2019-03-15T05:04:04.023Z,6.80
2019-03-15T05:06:35.195Z,6.80
2019-03-15T05:09:07.695Z,6.80
2019-03-15T05:11:38.884Z,6.80
2019-03-15T05:14:10.125Z,6.80
2019-03-15T05:16:41.328Z,6.80
2019-03-15T05:19:12.535Z,6.80
2019-03-15T05:21:43.698Z,6.80
2019-03-15T05:24:14.905Z,6.80
2019-03-15T05:26:46.023Z,6.80
2019-03-15T05:29:17.194Z,6.80
2019-03-15T05:31:48.457Z,6.90
2019-03-15T05:34:19.694Z,6.90
2019-03-15T05:36:50.924Z,6.90
2019-03-15T05:39:22.049Z,7.00
2019-03-15T05:41:53.238Z,7.00
2019-03-15T05:44:24.453Z,7.00
2019-03-15T05:46:55.694Z,7.00
2019-03-15T05:49:26.862Z,7.00
2019-03-15T05:51:57.998Z,7.00
2019-03-15T05:54:29.168Z,7.00
2019-03-15T05:57:00.476Z,7.00
2019-03-15T05:59:31.720Z,7.10
2019-03-15T06:02:03.173Z,7.10
2019-03-15T06:04:34.421Z,7.10
2019-03-15T06:07:05.690Z,7.20
2019-03-15T06:09:36.886Z,7.10
2019-03-15T06:12:08.041Z,7.20
2019-03-15T06:14:39.434Z,7.20
2019-03-15T06:17:10.647Z,7.20
2019-03-15T06:19:41.817Z,7.20
2019-03-15T06:22:13.008Z,7.20
2019-03-15T06:24:44.168Z,7.20
2019-03-15T06:27:15.399Z,7.30
2019-03-15T06:29:46.644Z,7.20
2019-03-15T06:32:17.896Z,7.20
2019-03-15T06:34:49.174Z,7.20
2019-03-15T06:37:20.432Z,7.20
2019-03-15T06:39:51.617Z,7.10
2019-03-15T06:42:36.796Z,7.10
2019-03-15T06:45:09.287Z,7.10
2019-03-15T06:47:40.542Z,7.10
2019-03-15T06:50:11.955Z,7.10
2019-03-15T06:52:43.175Z,7.10
2019-03-15T06:55:14.531Z,7.00
2019-03-15T06:57:45.697Z,7.00
2019-03-15T07:00:17.139Z,7.00
2019-03-15T07:02:48.271Z,7.00
2019-03-15T07:05:20.667Z,6.90
2019-03-15T07:07:52.015Z,6.90
2019-03-15T07:10:23.249Z,6.90
2019-03-15T07:12:56.067Z,6.90
2019-03-15T07:15:29.608Z,6.90
2019-03-15T07:18:00.788Z,6.90
2019-03-15T07:20:32.095Z,6.80
2019-03-15T07:23:05.405Z,6.80
2019-03-15T07:25:39.908Z,6.90
2019-03-15T07:28:11.203Z,6.80
2019-03-15T07:30:42.462Z,7.00
2019-03-15T07:33:16.621Z,7.00
2019-03-15T07:35:47.871Z,7.00
2019-03-15T07:38:19.162Z,7.00
2019-03-15T07:40:50.481Z,7.10
2019-03-15T07:43:24.760Z,7.10
2019-03-15T07:45:56.009Z,7.20
2019-03-15T07:48:27.299Z,7.10
2019-03-15T07:51:00.194Z,7.30
2019-03-15T07:53:31.515Z,7.30
2019-03-15T07:56:02.661Z,7.20
2019-03-15T07:58:33.997Z,7.20
2019-03-15T08:01:05.437Z,7.30
2019-03-15T08:03:36.866Z,7.30
2019-03-15T08:06:08.187Z,7.30
2019-03-15T08:08:39.647Z,7.40
2019-03-15T08:11:11.091Z,7.50
2019-03-15T08:13:45.104Z,7.40
2019-03-15T08:16:18.906Z,7.50
2019-03-15T08:18:50.364Z,7.50
2019-03-15T08:21:22.841Z,7.50
2019-03-15T08:23:54.120Z,7.50
2019-03-15T08:26:30.200Z,7.50
2019-03-15T08:29:00.873Z,7.50
2019-03-15T08:31:32.223Z,7.50
2019-03-15T08:34:03.539Z,7.50
2019-03-15T08:36:34.760Z,7.50
2019-03-15T08:39:07.585Z,7.50
2019-03-15T08:41:41.763Z,7.50
2019-03-15T08:44:12.946Z,7.60
2019-03-15T08:46:44.376Z,7.60
2019-03-15T08:49:18.760Z,7.70
2019-03-15T08:52:03.103Z,7.70
2019-03-15T08:54:23.343Z,7.70
2019-03-15T08:56:54.813Z,7.70
2019-03-15T08:59:27.028Z,7.80
2019-03-15T09:02:10.018Z,7.80
2019-03-15T09:04:41.561Z,7.80
2019-03-15T09:07:18.362Z,7.90
2019-03-15T09:09:57.590Z,8.00
2019-03-15T09:12:31.984Z,8.00
2019-03-15T09:15:07.989Z,8.00
2019-03-15T09:17:40.300Z,8.10
2019-03-15T09:20:13.138Z,8.20
2019-03-15T09:22:45.903Z,8.20
2019-03-15T09:26:10.200Z,8.30
2019-03-15T09:28:42.511Z,8.40
2019-03-15T09:31:20.648Z,8.50
2019-03-15T09:33:53.029Z,8.60
2019-03-15T09:36:27.826Z,8.50
2019-03-15T09:38:59.111Z,8.60
2019-03-15T09:41:32.173Z,8.60
2019-03-15T09:44:03.249Z,8.80
2019-03-15T09:46:34.527Z,8.90
2019-03-15T09:49:05.798Z,8.90
2019-03-15T09:51:36.998Z,9.00
2019-03-15T09:54:08.316Z,9.00
2019-03-15T09:56:39.692Z,9.10
2019-03-15T09:59:11.035Z,9.10
2019-03-15T10:01:42.352Z,9.20
2019-03-15T10:04:13.633Z,9.20
2019-03-15T10:06:44.918Z,9.30
2019-03-15T10:09:16.228Z,9.40
2019-03-15T10:11:47.745Z,9.40
2019-03-15T10:14:19.278Z,9.50
2019-03-15T10:16:50.636Z,9.60
2019-03-15T10:19:22.155Z,9.70
2019-03-15T10:21:53.433Z,9.80
2019-03-15T10:24:24.818Z,9.90
2019-03-15T10:26:56.328Z,10.00
2019-03-15T10:29:27.721Z,10.10
2019-03-15T10:31:59.077Z,10.10
2019-03-15T10:34:30.406Z,10.20
2019-03-15T10:37:05.989Z,10.20
2019-03-15T10:39:36.775Z,10.30
2019-03-15T10:42:08.127Z,10.40
2019-03-15T10:44:39.588Z,10.40
2019-03-15T10:47:10.989Z,10.50
2019-03-15T10:49:42.356Z,10.50
2019-03-15T10:52:13.717Z,10.60
2019-03-15T10:55:04.096Z,10.60
2019-03-15T10:57:55.373Z,10.80
2019-03-15T11:00:26.861Z,10.90
2019-03-15T11:02:58.197Z,10.90
2019-03-15T11:05:29.566Z,11.00
2019-03-15T11:08:00.858Z,11.00
2019-03-15T11:10:32.216Z,11.00
2019-03-15T11:13:03.504Z,11.10
2019-03-15T11:15:34.762Z,11.10
2019-03-15T11:18:06.125Z,11.20
2019-03-15T11:20:37.362Z,11.20
2019-03-15T11:23:08.719Z,11.20
2019-03-15T11:25:40.033Z,11.30
2019-03-15T11:28:11.287Z,11.30
2019-03-15T11:30:42.554Z,11.30
2019-03-15T11:33:13.875Z,11.40
2019-03-15T11:35:45.117Z,11.70
2019-03-15T11:38:16.416Z,11.90
2019-03-15T11:40:47.650Z,11.90
2019-03-15T11:43:18.851Z,12.00
2019-03-15T11:45:50.046Z,12.00
2019-03-15T11:48:21.293Z,11.90
2019-03-15T11:50:52.558Z,11.70
2019-03-15T11:53:23.727Z,11.60
2019-03-15T11:55:54.995Z,11.60
2019-03-15T11:58:26.293Z,11.60
2019-03-15T12:00:57.601Z,11.60
2019-03-15T12:03:28.915Z,11.60
2019-03-15T12:06:00.164Z,11.70
2019-03-15T12:08:33.548Z,11.90
2019-03-15T12:11:04.783Z,12.00
2019-03-15T12:13:36.031Z,12.20
2019-03-15T12:16:07.375Z,12.30
2019-03-15T12:18:38.636Z,12.20
2019-03-15T12:21:09.884Z,12.20
2019-03-15T12:23:41.103Z,12.20
2019-03-15T12:29:08.090Z,12.20
2019-03-15T12:31:41.038Z,12.20
2019-03-15T12:34:12.232Z,12.20
2019-03-15T12:36:43.393Z,12.20
2019-03-15T12:39:14.645Z,12.20
2019-03-15T12:41:45.945Z,12.30
2019-03-15T12:44:17.105Z,12.50
2019-03-15T12:46:48.361Z,12.70
2019-03-15T12:49:19.578Z,12.90
2019-03-15T12:51:50.893Z,12.90
2019-03-15T12:54:22.112Z,12.90
2019-03-15T12:56:54.216Z,12.80
2019-03-15T12:59:25.642Z,12.80
2019-03-15T13:01:56.896Z,12.70
2019-03-15T13:04:28.038Z,12.50
2019-03-15T13:06:59.281Z,12.40
2019-03-15T13:09:30.486Z,12.40
2019-03-15T13:12:01.681Z,12.30
2019-03-15T13:14:32.985Z,12.40
2019-03-15T13:17:04.195Z,12.50
2019-03-15T13:19:35.429Z,12.70
2019-03-15T13:22:06.815Z,12.90
2019-03-15T13:24:38.069Z,13.00
2019-03-15T13:27:09.320Z,13.00
2019-03-15T13:29:40.545Z,13.00
2019-03-15T13:32:11.777Z,13.10
2019-03-15T13:34:43.026Z,13.20
2019-03-15T13:37:14.263Z,13.20
2019-03-15T13:39:45.556Z,13.10
2019-03-15T13:42:16.809Z,13.10
2019-03-15T13:44:48.091Z,13.10
2019-03-15T13:47:19.317Z,13.00
2019-03-15T13:49:50.504Z,12.80
2019-03-15T13:52:21.643Z,12.60
2019-03-15T13:55:11.888Z,12.40
2019-03-15T13:58:02.149Z,12.30
2019-03-15T14:00:33.418Z,12.20
2019-03-15T14:03:04.725Z,12.10
2019-03-15T14:05:36.052Z,12.10
2019-03-15T14:08:11.899Z,12.10
2019-03-15T14:10:49.166Z,12.10
2019-03-15T14:13:13.109Z,12.20
2019-03-15T14:15:44.371Z,12.20
2019-03-15T14:18:15.665Z,12.30
2019-03-15T14:20:46.922Z,12.20
2019-03-15T14:23:18.198Z,12.20
2019-03-15T14:25:49.324Z,12.20
2019-03-15T14:28:20.650Z,12.30
2019-03-15T14:30:52.045Z,12.30
2019-03-15T14:33:23.357Z,12.30
2019-03-15T14:35:54.588Z,12.30
2019-03-15T14:38:26.046Z,12.40
2019-03-15T14:40:57.497Z,12.50
2019-03-15T14:43:28.827Z,12.50
2019-03-15T14:46:00.273Z,12.40
2019-03-15T14:48:31.612Z,12.40
2019-03-15T14:51:02.874Z,12.50
2019-03-15T14:53:34.183Z,12.50
2019-03-15T14:56:06.346Z,12.50
2019-03-15T14:58:37.633Z,12.50
2019-03-15T15:01:08.958Z,12.50
2019-03-15T15:03:40.209Z,12.50
2019-03-15T15:06:11.549Z,12.40
2019-03-15T15:08:42.769Z,12.40
2019-03-15T15:11:14.047Z,12.50
2019-03-15T15:13:45.373Z,12.50
2019-03-15T15:16:16.775Z,12.30
2019-03-15T15:19:01.885Z,12.20
2019-03-15T15:21:33.042Z,12.20
2019-03-15T15:24:04.394Z,12.20
2019-03-15T15:26:54.569Z,12.20
2019-03-15T15:29:25.886Z,12.30
2019-03-15T15:31:57.118Z,12.30
2019-03-15T15:34:28.365Z,12.20
2019-03-15T15:36:59.760Z,12.10
2019-03-15T15:39:31.138Z,12.00
2019-03-15T15:42:02.421Z,12.00
2019-03-15T15:44:33.705Z,11.90
2019-03-15T15:47:05.020Z,11.80
2019-03-15T15:49:36.284Z,11.80
2019-03-15T15:52:07.705Z,11.80
2019-03-15T15:54:39.849Z,11.80
2019-03-15T15:57:11.302Z,11.80
2019-03-15T15:59:42.673Z,11.80
2019-03-15T16:02:14.151Z,11.80
2019-03-15T16:04:45.509Z,11.70
2019-03-15T16:07:16.743Z,11.70
2019-03-15T16:09:48.153Z,11.50
2019-03-15T16:12:19.598Z,11.40
2019-03-15T16:14:51.109Z,11.40
2019-03-15T16:17:22.560Z,11.30
2019-03-15T16:19:53.863Z,11.20
2019-03-15T16:22:24.977Z,11.20
2019-03-15T16:24:56.349Z,11.10
2019-03-15T16:27:27.810Z,11.00
2019-03-15T16:29:59.680Z,10.80
2019-03-15T16:32:31.173Z,10.70
2019-03-15T16:35:02.542Z,10.60
2019-03-15T16:37:34.029Z,10.50
2019-03-15T16:40:05.845Z,10.50
2019-03-15T16:42:37.282Z,10.50
2019-03-15T16:45:14.973Z,10.40
2019-03-15T16:47:45.012Z,10.40
2019-03-15T16:50:16.889Z,10.40
2019-03-15T16:52:48.643Z,10.30
2019-03-15T16:55:39.150Z,10.30
2019-03-15T16:58:10.605Z,10.30
2019-03-15T17:00:41.996Z,10.30
2019-03-15T17:03:13.416Z,10.30
2019-03-15T17:05:44.859Z,10.30
2019-03-15T17:08:16.302Z,10.30
2019-03-15T17:10:48.077Z,10.30
2019-03-15T17:13:20.687Z,10.30
2019-03-15T17:15:51.900Z,10.30
2019-03-15T17:18:23.344Z,10.10
2019-03-15T17:20:54.686Z,9.80
2019-03-15T17:23:26.256Z,9.50
2019-03-15T17:25:57.802Z,9.40
2019-03-15T17:28:29.174Z,9.30
2019-03-15T17:31:09.595Z,9.20
2019-03-15T17:33:33.678Z,9.20
2019-03-15T17:36:05.188Z,9.20
2019-03-15T17:38:36.790Z,9.20
2019-03-15T17:41:08.344Z,9.20
2019-03-15T17:43:39.715Z,9.10
2019-03-15T17:46:12.927Z,9.10
2019-03-15T17:48:44.366Z,9.10
2019-03-15T17:51:15.881Z,9.00
2019-03-15T17:53:47.234Z,9.00
2019-03-15T17:56:18.917Z,8.90
2019-03-15T17:58:50.304Z,8.90
2019-03-15T18:01:21.675Z,8.90
2019-03-15T18:03:53.168Z,8.90
2019-03-15T18:06:24.415Z,8.90
2019-03-15T18:08:55.698Z,8.90
2019-03-15T18:11:26.924Z,8.90
2019-03-15T18:13:58.585Z,8.90
2019-03-15T18:16:29.780Z,9.00
2019-03-15T18:19:01.025Z,9.00
2019-03-15T18:21:51.350Z,9.00
2019-03-15T18:24:43.243Z,9.00
2019-03-15T18:27:14.507Z,9.00
2019-03-15T18:29:45.797Z,8.90
2019-03-15T18:32:17.038Z,8.90
2019-03-15T18:34:48.278Z,8.80
2019-03-15T18:37:19.374Z,8.90
2019-03-15T18:39:50.516Z,8.80
2019-03-15T18:42:21.692Z,8.80
2019-03-15T18:44:52.947Z,8.70
2019-03-15T18:47:24.174Z,8.70
2019-03-15T18:49:55.371Z,8.60
2019-03-15T18:52:26.617Z,8.60
2019-03-15T18:54:57.852Z,8.60
2019-03-15T18:57:29.168Z,8.60
2019-03-15T19:00:00.425Z,8.60
2019-03-15T19:02:31.734Z,8.60
2019-03-15T19:05:02.973Z,8.70
2019-03-15T19:07:34.258Z,8.70
2019-03-15T19:10:05.986Z,8.70
2019-03-15T19:12:37.360Z,8.60
2019-03-15T19:15:09.353Z,8.70
2019-03-15T19:17:40.643Z,8.70
2019-03-15T19:20:12.189Z,8.70
2019-03-15T19:22:43.508Z,8.60
2019-03-15T19:25:15.000Z,8.60
2019-03-15T19:27:46.383Z,8.50
2019-03-15T19:30:17.699Z,8.40
2019-03-15T19:32:48.972Z,8.40
2019-03-15T19:35:20.173Z,8.30
2019-03-15T19:37:51.742Z,8.20
2019-03-15T19:40:22.982Z,8.20
2019-03-15T19:42:54.233Z,8.10
2019-03-15T19:45:25.502Z,8.10
2019-03-15T19:48:15.704Z,8.10
2019-03-15T19:51:06.616Z,8.10
2019-03-15T19:53:47.268Z,8.10
2019-03-15T19:56:37.153Z,8.20
2019-03-15T19:59:16.664Z,8.30
2019-03-15T20:02:09.046Z,8.30
2019-03-15T20:04:44.079Z,8.30
2019-03-15T20:07:24.971Z,8.30
2019-03-15T20:10:01.799Z,8.40
2019-03-15T20:12:34.608Z,8.40
2019-03-15T20:15:10.024Z,8.30
2019-03-15T20:17:46.855Z,8.30
2019-03-15T20:20:19.620Z,8.20
2019-03-15T20:22:57.189Z,8.30
2019-03-15T20:25:29.082Z,8.30
2019-03-15T20:28:04.003Z,8.30
2019-03-15T20:30:51.019Z,8.40
2019-03-15T20:33:12.601Z,8.40
2019-03-15T20:35:45.503Z,8.40
2019-03-15T20:38:16.930Z,8.30
2019-03-15T20:40:48.362Z,8.30
2019-03-15T20:43:19.666Z,8.40
2019-03-15T20:45:51.180Z,8.40
2019-03-15T20:48:25.670Z,8.30
2019-03-15T20:50:56.905Z,8.20
2019-03-15T20:53:28.253Z,8.20
2019-03-15T20:55:59.549Z,8.20
2019-03-15T20:58:30.728Z,8.00
2019-03-15T21:01:01.947Z,7.90
2019-03-15T21:03:33.352Z,7.80
2019-03-15T21:06:04.570Z,7.70
2019-03-15T21:08:35.817Z,7.70
2019-03-15T21:11:07.149Z,7.70
2019-03-15T21:13:38.407Z,7.80
2019-03-15T21:16:09.551Z,7.90
2019-03-15T21:18:40.773Z,7.90
2019-03-15T21:21:12.016Z,8.00
2019-03-15T21:23:43.183Z,8.00
2019-03-15T21:26:14.393Z,8.00
2019-03-15T21:28:45.661Z,7.90
2019-03-15T21:31:16.888Z,7.90
2019-03-15T21:33:48.126Z,7.80
2019-03-15T21:36:19.279Z,7.80
2019-03-15T21:38:50.479Z,7.80
2019-03-15T21:41:21.693Z,7.80
2019-03-15T21:43:52.846Z,7.80
2019-03-15T21:46:24.083Z,7.80
2019-03-15T21:48:58.029Z,7.80
2019-03-15T21:51:29.229Z,7.80
2019-03-15T21:54:00.451Z,7.80
2019-03-15T21:56:31.720Z,7.90
2019-03-15T21:59:03.034Z,7.90
2019-03-15T22:01:34.300Z,8.00
2019-03-15T22:04:05.601Z,7.90
2019-03-15T22:06:36.880Z,7.90
2019-03-15T22:09:09.384Z,7.90
2019-03-15T22:11:40.636Z,7.90
2019-03-15T22:14:11.893Z,8.00
2019-03-15T22:16:43.150Z,8.00
2019-03-15T22:19:14.450Z,8.00
2019-03-15T22:21:45.659Z,8.00
2019-03-15T22:24:16.883Z,8.00
2019-03-15T22:26:48.047Z,8.10
2019-03-15T22:29:19.482Z,8.00
2019-03-15T22:31:50.718Z,7.90
2019-03-15T22:34:21.972Z,7.90
2019-03-15T22:36:53.233Z,7.90
2019-03-15T22:39:24.625Z,8.00
2019-03-15T22:41:55.931Z,8.00
2019-03-15T22:45:05.287Z,7.90
2019-03-15T22:53:21.518Z,7.80
2019-03-15T22:55:52.780Z,7.80
2019-03-15T22:58:28.075Z,7.80
2019-03-15T23:00:59.495Z,7.80
2019-03-15T23:03:30.855Z,7.80
2019-03-15T23:06:02.248Z,7.80
2019-03-15T23:08:33.710Z,7.80
2019-03-15T23:11:05.480Z,7.90
2019-03-15T23:13:36.925Z,7.90
2019-03-15T23:16:15.928Z,7.90
2019-03-15T23:18:47.401Z,7.90
2019-03-15T23:21:18.790Z,7.90
2019-03-15T23:23:50.272Z,8.00
2019-03-15T23:26:21.828Z,8.00
2019-03-15T23:28:53.238Z,8.00
2019-03-15T23:31:24.660Z,8.00
2019-03-15T23:33:56.465Z,8.10
2019-03-15T23:36:27.968Z,8.20
2019-03-15T23:38:59.397Z,8.20
2019-03-15T23:41:30.798Z,8.20
2019-03-15T23:44:02.244Z,8.20
2019-03-15T23:46:33.585Z,8.30
2019-03-15T23:49:04.859Z,8.40
2019-03-15T23:51:36.247Z,8.40
2019-03-15T23:54:10.392Z,8.40
2019-03-15T23:56:42.027Z,8.40
2019-03-15T23:59:14.551Z,8.50
